Sadlers Wells — 2HCI5 — position and weather

sailwx.info

Track history (hours):
 
Tides and Currents Weather Stations Pressure Air Temp Water Temp Dewpoint Dewpoint Depression Visibility Wind Speed Wind Dir Waves Ship Positions

Sadlers Wells

Last reported at 2018-Jun-17 01:39 UTC. Time now 2018-Jun-19 12:44 UTC.
Position N 26°46' W 014°48'.

Length 199 m; draft 12.6 m.

Type: Cargo ship. MMSI: 235102467.

Date/timePositionNaut miles runAvg speedWind from/ knotsBaromVisibWave heightAir tempDewpointWater temp
2018-Jun-17 01:39N 26°46' W 014°48'213.0
2018-Jun-17 01:30N 26°48' W 014°47'712.9
2018-Jun-17 01:00N 26°53' W 014°42'1112.7
2018-Jun-17 00:08N 27°01' W 014°34'312.9
2018-Jun-16 23:52N 27°04' W 014°32'613.2
2018-Jun-16 23:23N 27°09' W 014°27'513.4
2018-Jun-16 22:59N 27°13' W 014°23'713.3
2018-Jun-16 22:28N 27°18' W 014°19'813.6
2018-Jun-16 21:53N 27°24' W 014°13'513.5
2018-Jun-16 21:30N 27°28' W 014°09'713.5
2018-Jun-16 20:59N 27°33' W 014°04'713.5
2018-Jun-16 20:29N 27°39' W 013°59'713.5
2018-Jun-16 20:00N 27°44' W 013°54'713.3
2018-Jun-16 19:30N 27°49' W 013°50'713.4
2018-Jun-16 18:59N 27°54' W 013°44'713.4
2018-Jun-16 18:29N 27°60' W 013°41'713.6
2018-Jun-16 17:57N 28°07' W 013°37'1413.5
2018-Jun-16 16:53N 28°20' W 013°30'913.4
2018-Jun-16 16:13N 28°28' W 013°26'313.3
2018-Jun-16 16:00N 28°30' W 013°25'713.2
2018-Jun-16 15:29N 28°36' W 013°21'613.2
2018-Jun-16 15:00N 28°42' W 013°19'713.2
2018-Jun-16 14:30N 28°48' W 013°15'713.1
2018-Jun-16 14:00N 28°54' W 013°12'713.0
2018-Jun-16 13:30N 29°00' W 013°09'912.9
2018-Jun-16 12:50N 29°08' W 013°05'49312.8
2018-Jun-14 22:17N 37°15' W 011°37'413.0
2018-Jun-14 21:58N 37°19' W 011°36'813.0
2018-Jun-14 21:21N 37°27' W 011°35'513.1
2018-Jun-14 20:56N 37°32' W 011°34'613.2
2018-Jun-14 20:29N 37°38' W 011°33'613.3
2018-Jun-14 20:00N 37°45' W 011°32'913.3
2018-Jun-14 19:18N 37°54' W 011°30'513.3
2018-Jun-14 18:56N 37°59' W 011°29'813.1
2018-Jun-14 18:19N 38°07' W 011°27'513.1
2018-Jun-14 17:56N 38°12' W 011°26'613.0
2018-Jun-14 17:30N 38°17' W 011°25'612.7
2018-Jun-14 17:00N 38°23' W 011°24'712.9
2018-Jun-14 16:30N 38°30' W 011°23'612.8
2018-Jun-14 16:00N 38°36' W 011°22'713.1
2018-Jun-14 15:29N 38°43' W 011°20'613.0
2018-Jun-14 15:00N 38°49' W 011°19'712.9
2018-Jun-14 14:29N 38°56' W 011°19'612.9
2018-Jun-14 14:00N 39°02' W 011°17'912.5
2018-Jun-14 13:19N 39°10' W 011°15'412.4
2018-Jun-14 13:00N 39°14' W 011°15'612.7
2018-Jun-14 12:30N 39°20' W 011°13'812.7
2018-Jun-14 11:51N 39°29' W 011°12'63712.4
2018-Jun-12 08:27N 49°10' W 005°08'5512.7
2018-Jun-12 04:07N 49°37' W 003°54'111.5
2018-Jun-12 04:00N 49°38' W 003°52'611.4
2018-Jun-12 03:30N 49°41' W 003°44'611.6
2018-Jun-12 03:00N 49°43' W 003°36'612.1
2018-Jun-12 02:30N 49°46' W 003°28'612.9
2018-Jun-12 02:01N 49°49' W 003°19'713.5
2018-Jun-12 01:31N 49°53' W 003°10'714.1
2018-Jun-12 01:00N 49°56' W 003°01'714.5
2018-Jun-12 00:30N 49°59' W 002°50'714.9
2018-Jun-12 00:01N 50°01' W 002°39'815.3
2018-Jun-11 23:29N 50°03' W 002°27'815.5
2018-Jun-11 22:58N 50°05' W 002°15'715.2
2018-Jun-11 22:29N 50°07' W 002°04'714.5
2018-Jun-11 22:00N 50°09' W 001°54'713.8
2018-Jun-11 21:30N 50°11' W 001°44'612.8
2018-Jun-11 21:00N 50°13' W 001°34'612.1
2018-Jun-11 20:30N 50°15' W 001°25'611.3
2018-Jun-11 20:00N 50°16' W 001°17'510.7
2018-Jun-11 19:30N 50°18' W 001°09'510.0
2018-Jun-11 19:00N 50°19' W 001°01'5 9.7
2018-Jun-11 18:30N 50°21' W 000°54'5 9.9
2018-Jun-11 18:00N 50°22' W 000°46'510.2
2018-Jun-11 17:30N 50°23' W 000°39'510.7
2018-Jun-11 17:00N 50°25' W 000°30'611.4
2018-Jun-11 16:30N 50°27' W 000°22'612.3
2018-Jun-11 16:00N 50°28' W 000°13'613.0
2018-Jun-11 15:30N 50°30' W 000°03'713.4
2018-Jun-11 15:00N 50°32' E 000°07'713.8
2018-Jun-11 14:30N 50°34' E 000°17'714.1
2018-Jun-11 14:00N 50°36' E 000°28'713.8
2018-Jun-11 13:30N 50°39' E 000°38'713.7
2018-Jun-11 13:00N 50°43' E 000°47'713.3
2018-Jun-11 12:30N 50°47' E 000°55'612.8
2018-Jun-11 12:00N 50°51' E 001°03'612.0
2018-Jun-11 11:30N 50°55' E 001°10'711.1
2018-Jun-11 10:53N 50°59' E 001°18'410.2
2018-Jun-11 10:30N 51°02' E 001°23'510.1
2018-Jun-11 10:00N 51°05' E 001°29'510.0
2018-Jun-11 09:30N 51°08' E 001°35'510.3
2018-Jun-11 09:00N 51°12' E 001°41'510.7
2018-Jun-11 08:30N 51°16' E 001°47'611.5
2018-Jun-11 08:00N 51°21' E 001°50'713.3
2018-Jun-11 07:30N 51°27' E 001°55'714.1
2018-Jun-11 07:01N 51°32' E 002°03'714.3
2018-Jun-11 06:31N 51°37' E 002°11'714.4
2018-Jun-11 06:00N 51°43' E 002°19'714.3
2018-Jun-11 05:30N 51°48' E 002°27'714.0
2018-Jun-11 05:00N 51°54' E 002°33'713.1
2018-Jun-11 04:30N 51°60' E 002°36'713.2
2018-Jun-11 04:00N 52°07' E 002°37'612.6
2018-Jun-11 03:30N 52°13' E 002°38'612.3
2018-Jun-11 03:00N 52°18' E 002°42'611.8
2018-Jun-11 02:30N 52°23' E 002°47'611.7
2018-Jun-11 02:00N 52°29' E 002°51'611.5
2018-Jun-11 01:30N 52°34' E 002°55'611.2
2018-Jun-11 01:00N 52°39' E 003°00'611.2
2018-Jun-11 00:27N 52°44' E 003°05'511.2
2018-Jun-11 00:00N 52°49' E 003°09'611.3
2018-Jun-10 23:30N 52°54' E 003°13'611.5
2018-Jun-10 23:00N 52°59' E 003°16'611.9
2018-Jun-10 22:29N 53°05' E 003°19'612.3
2018-Jun-10 22:00N 53°11' E 003°22'712.6
2018-Jun-10 21:28N 53°17' E 003°25'612.8
2018-Jun-10 21:00N 53°23' E 003°28'712.9
2018-Jun-10 20:29N 53°29' E 003°31'713.0
2018-Jun-10 19:55N 53°36' E 003°35'1812.2
2018-Jun-10 18:27N 53°50' E 003°55'17412.4
2018-Jun-10 04:28N 56°09' E 006°55'1812.4
2018-Jun-10 03:00N 56°24' E 007°14'612.3
2018-Jun-10 02:30N 56°29' E 007°20'2812.1
2018-Jun-10 00:09N 56°53' E 007°49'3012.2
2018-Jun-09 21:42N 57°18' E 008°20'412.5
2018-Jun-09 21:22N 57°21' E 008°24'412.5
2018-Jun-09 21:01N 57°25' E 008°29'612.2
2018-Jun-09 20:30N 57°28' E 008°39'612.3
2018-Jun-09 20:00N 57°32' E 008°48'612.3
2018-Jun-09 19:30N 57°35' E 008°58'612.5
2018-Jun-09 19:00N 57°38' E 009°08'612.3
2018-Jun-09 18:30N 57°42' E 009°18'612.2
2018-Jun-09 18:00N 57°44' E 009°28'612.2
2018-Jun-09 17:30N 57°46' E 009°39'612.0
2018-Jun-09 16:59N 57°48' E 009°50'612.2
2018-Jun-09 16:30N 57°49' E 010°01'612.3
2018-Jun-09 16:00N 57°49' E 010°12'612.1
2018-Jun-09 15:30N 57°49' E 010°24'1111.1
2018-Jun-09 14:30N 57°46' E 010°44'4 7.5
2018-Jun-09 14:00N 57°43' E 010°46'3 5.9
2018-Jun-09 13:30N 57°40' E 010°42'0 0.1
2018-Jun-09 12:58N 57°40' E 010°42'0 0.0
2018-Jun-09 12:28N 57°40' E 010°42'0 0.0
2018-Jun-09 11:58N 57°41' E 010°42'0 0.0
2018-Jun-09 11:28N 57°41' E 010°42'0 0.0
2018-Jun-09 10:58N 57°41' E 010°42'0 0.0
2018-Jun-09 10:28N 57°41' E 010°42'0 0.2
2018-Jun-09 09:58N 57°41' E 010°42'0 0.1
2018-Jun-09 09:28N 57°41' E 010°42'0 0.1
2018-Jun-09 08:58N 57°41' E 010°42'0 0.0
2018-Jun-09 08:28N 57°41' E 010°42'0 0.0
2018-Jun-09 07:55N 57°41' E 010°42'0 0.0
2018-Jun-09 07:28N 57°41' E 010°42'0 0.0
2018-Jun-09 06:55N 57°41' E 010°42'0 0.0
2018-Jun-09 06:28N 57°41' E 010°42'0 0.0
2018-Jun-09 05:58N 57°41' E 010°42'0 0.1
2018-Jun-09 05:28N 57°41' E 010°42'0 0.0
2018-Jun-09 04:52N 57°41' E 010°42'0 0.0
2018-Jun-09 04:28N 57°41' E 010°42'0 0.1
2018-Jun-09 03:52N 57°41' E 010°42'0 0.5
2018-Jun-09 03:30N 57°41' E 010°42'1 1.8
2018-Jun-09 03:00N 57°42' E 010°43'3 6.6
2018-Jun-09 02:30N 57°41' E 010°49'5 9.8
2018-Jun-09 02:00N 57°40' E 010°58'511.0
2018-Jun-09 01:31N 57°38' E 011°07'611.4
2018-Jun-09 01:01N 57°34' E 011°15'611.4
2018-Jun-09 00:31N 57°30' E 011°23'611.2
2018-Jun-09 00:00N 57°25' E 011°28'611.6
2018-Jun-08 23:31N 57°20' E 011°31'611.7
2018-Jun-08 23:00N 57°14' E 011°35'611.4
2018-Jun-08 22:30N 57°09' E 011°38'611.6
2018-Jun-08 22:01N 57°04' E 011°42'611.4
2018-Jun-08 21:30N 56°58' E 011°46'611.4
2018-Jun-08 21:00N 56°53' E 011°49'4111.1
2018-Jun-08 17:20N 56°15' E 011°21'511.0
2018-Jun-08 16:54N 56°11' E 011°17'2210.8
2018-Jun-08 14:49N 55°53' E 010°54'410.9
2018-Jun-08 14:27N 55°50' E 010°49'511.6
2018-Jun-08 14:00N 55°45' E 010°48'611.5
2018-Jun-08 13:30N 55°39' E 010°47'611.5
2018-Jun-08 12:58N 55°33' E 010°51'611.5
2018-Jun-08 12:29N 55°28' E 010°55'811.1
2018-Jun-08 11:44N 55°21' E 011°02'210.8
2018-Jun-08 11:30N 55°18' E 011°03'510.9
2018-Jun-08 11:00N 55°13' E 011°06'510.6
2018-Jun-08 10:30N 55°09' E 010°60'510.7
2018-Jun-08 10:01N 55°04' E 010°60'510.7
2018-Jun-08 09:30N 54°59' E 010°58'510.7
2018-Jun-08 09:00N 54°55' E 010°52'510.8
2018-Jun-08 08:30N 54°49' E 010°50'510.9
2018-Jun-08 08:00N 54°44' E 010°47'5 9.4
2018-Jun-08 07:30N 54°40' E 010°50'611.8
2018-Jun-08 07:00N 54°37' E 010°58'611.1
2018-Jun-08 06:30N 54°36' E 011°08'612.2
2018-Jun-08 06:00N 54°34' E 011°17'612.8
2018-Jun-08 05:30N 54°31' E 011°27'612.5
2018-Jun-08 05:00N 54°28' E 011°37'511.0
2018-Jun-08 04:30N 54°26' E 011°45'612.0
2018-Jun-08 04:00N 54°22' E 011°53'612.1
2018-Jun-08 03:30N 54°18' E 012°01'611.0
2018-Jun-08 02:59N 54°13' E 012°05'3 6.7
2018-Jun-08 02:30N 54°10' E 012°07'1 1.0
2018-Jun-08 01:53N 54°09' E 012°07'0 0.0
2018-Jun-08 01:08N 54°09' E 012°07'0 0.0
2018-Jun-08 00:59N 54°09' E 012°07'0 0.0
2018-Jun-08 00:26N 54°09' E 012°07'0 0.0
2018-Jun-07 23:56N 54°09' E 012°07'0 0.0
2018-Jun-07 23:29N 54°09' E 012°07'0 0.0
2018-Jun-07 22:56N 54°09' E 012°07'0 0.0
2018-Jun-07 22:29N 54°09' E 012°07'0 0.0
2018-Jun-07 21:56N 54°09' E 012°07'0 0.0
2018-Jun-07 21:29N 54°09' E 012°07'0 0.0
2018-Jun-07 20:50N 54°09' E 012°07'0 0.0
2018-Jun-07 19:08N 54°09' E 012°07'0 0.0
2018-Jun-07 18:56N 54°09' E 012°07'0 0.0
2018-Jun-07 18:23N 54°09' E 012°07'0 0.0
2018-Jun-07 17:14N 54°09' E 012°07'0 0.0
2018-Jun-07 16:59N 54°09' E 012°07'0 0.0
2018-Jun-07 16:23N 54°09' E 012°07'0 0.0
2018-Jun-07 15:44N 54°09' E 012°07'0 0.0
2018-Jun-07 15:20N 54°09' E 012°07'0 0.0
2018-Jun-07 14:59N 54°09' E 012°07'0 0.0
2018-Jun-07 14:26N 54°09' E 012°07'0 0.0
2018-Jun-07 13:56N 54°09' E 012°07'0 0.0
2018-Jun-07 13:26N 54°09' E 012°07'0 0.0
2018-Jun-07 11:44N 54°09' E 012°07'0 0.0
2018-Jun-07 11:29N 54°09' E 012°07'0 0.0
2018-Jun-07 10:59N 54°09' E 012°07'0 0.0
2018-Jun-07 10:29N 54°09' E 012°07'0 0.0
2018-Jun-07 08:59N 54°09' E 012°07'0 0.0
2018-Jun-07 08:20N 54°09' E 012°07'0 0.0
2018-Jun-07 07:59N 54°09' E 012°07'0 0.0
2018-Jun-07 07:23N 54°09' E 012°07'0 0.0
2018-Jun-07 06:53N 54°09' E 012°07'0 0.0
2018-Jun-07 03:56N 54°09' E 012°07'0 0.0
2018-Jun-07 03:26N 54°09' E 012°07'0 0.0
2018-Jun-07 02:50N 54°09' E 012°07'0 0.0
2018-Jun-07 02:29N 54°09' E 012°07'0 0.0
2018-Jun-07 01:59N 54°09' E 012°07'  
Track history (hours):
 
Tides and Currents Weather Stations Pressure Air Temp Water Temp Dewpoint Dewpoint Depression Visibility Wind Speed Wind Dir Waves Ship Positions

Sadlers Wells

Last reported at 2018-Jun-17 01:39 UTC. Time now 2018-Jun-19 12:44 UTC.
Position N 26°46' W 014°48'.

Length 199 m; draft 12.6 m.

Type: Cargo ship. MMSI: 235102467.

Date/timePositionNaut miles runAvg speedWind from/ knotsBaromVisibWave heightAir tempDewpointWater temp
2018-Jun-17 01:39N 26°46' W 014°48'213.0
2018-Jun-17 01:30N 26°48' W 014°47'712.9
2018-Jun-17 01:00N 26°53' W 014°42'1112.7
2018-Jun-17 00:08N 27°01' W 014°34'312.9
2018-Jun-16 23:52N 27°04' W 014°32'613.2
2018-Jun-16 23:23N 27°09' W 014°27'513.4
2018-Jun-16 22:59N 27°13' W 014°23'713.3
2018-Jun-16 22:28N 27°18' W 014°19'813.6
2018-Jun-16 21:53N 27°24' W 014°13'513.5
2018-Jun-16 21:30N 27°28' W 014°09'713.5
2018-Jun-16 20:59N 27°33' W 014°04'713.5
2018-Jun-16 20:29N 27°39' W 013°59'713.5
2018-Jun-16 20:00N 27°44' W 013°54'713.3
2018-Jun-16 19:30N 27°49' W 013°50'713.4
2018-Jun-16 18:59N 27°54' W 013°44'713.4
2018-Jun-16 18:29N 27°60' W 013°41'713.6
2018-Jun-16 17:57N 28°07' W 013°37'1413.5
2018-Jun-16 16:53N 28°20' W 013°30'913.4
2018-Jun-16 16:13N 28°28' W 013°26'313.3
2018-Jun-16 16:00N 28°30' W 013°25'713.2
2018-Jun-16 15:29N 28°36' W 013°21'613.2
2018-Jun-16 15:00N 28°42' W 013°19'713.2
2018-Jun-16 14:30N 28°48' W 013°15'713.1
2018-Jun-16 14:00N 28°54' W 013°12'713.0
2018-Jun-16 13:30N 29°00' W 013°09'912.9
2018-Jun-16 12:50N 29°08' W 013°05'49312.8
2018-Jun-14 22:17N 37°15' W 011°37'413.0
2018-Jun-14 21:58N 37°19' W 011°36'813.0
2018-Jun-14 21:21N 37°27' W 011°35'513.1
2018-Jun-14 20:56N 37°32' W 011°34'613.2
2018-Jun-14 20:29N 37°38' W 011°33'613.3
2018-Jun-14 20:00N 37°45' W 011°32'913.3
2018-Jun-14 19:18N 37°54' W 011°30'513.3
2018-Jun-14 18:56N 37°59' W 011°29'813.1
2018-Jun-14 18:19N 38°07' W 011°27'513.1
2018-Jun-14 17:56N 38°12' W 011°26'613.0
2018-Jun-14 17:30N 38°17' W 011°25'612.7
2018-Jun-14 17:00N 38°23' W 011°24'712.9
2018-Jun-14 16:30N 38°30' W 011°23'612.8
2018-Jun-14 16:00N 38°36' W 011°22'713.1
2018-Jun-14 15:29N 38°43' W 011°20'613.0
2018-Jun-14 15:00N 38°49' W 011°19'712.9
2018-Jun-14 14:29N 38°56' W 011°19'612.9
2018-Jun-14 14:00N 39°02' W 011°17'912.5
2018-Jun-14 13:19N 39°10' W 011°15'412.4
2018-Jun-14 13:00N 39°14' W 011°15'612.7
2018-Jun-14 12:30N 39°20' W 011°13'812.7
2018-Jun-14 11:51N 39°29' W 011°12'63712.4
2018-Jun-12 08:27N 49°10' W 005°08'5512.7
2018-Jun-12 04:07N 49°37' W 003°54'111.5
2018-Jun-12 04:00N 49°38' W 003°52'611.4
2018-Jun-12 03:30N 49°41' W 003°44'611.6
2018-Jun-12 03:00N 49°43' W 003°36'612.1
2018-Jun-12 02:30N 49°46' W 003°28'612.9
2018-Jun-12 02:01N 49°49' W 003°19'713.5
2018-Jun-12 01:31N 49°53' W 003°10'714.1
2018-Jun-12 01:00N 49°56' W 003°01'714.5
2018-Jun-12 00:30N 49°59' W 002°50'714.9
2018-Jun-12 00:01N 50°01' W 002°39'815.3
2018-Jun-11 23:29N 50°03' W 002°27'815.5
2018-Jun-11 22:58N 50°05' W 002°15'715.2
2018-Jun-11 22:29N 50°07' W 002°04'714.5
2018-Jun-11 22:00N 50°09' W 001°54'713.8
2018-Jun-11 21:30N 50°11' W 001°44'612.8
2018-Jun-11 21:00N 50°13' W 001°34'612.1
2018-Jun-11 20:30N 50°15' W 001°25'611.3
2018-Jun-11 20:00N 50°16' W 001°17'510.7
2018-Jun-11 19:30N 50°18' W 001°09'510.0
2018-Jun-11 19:00N 50°19' W 001°01'5 9.7
2018-Jun-11 18:30N 50°21' W 000°54'5 9.9
2018-Jun-11 18:00N 50°22' W 000°46'510.2
2018-Jun-11 17:30N 50°23' W 000°39'510.7
2018-Jun-11 17:00N 50°25' W 000°30'611.4
2018-Jun-11 16:30N 50°27' W 000°22'612.3
2018-Jun-11 16:00N 50°28' W 000°13'613.0
2018-Jun-11 15:30N 50°30' W 000°03'713.4
2018-Jun-11 15:00N 50°32' E 000°07'713.8
2018-Jun-11 14:30N 50°34' E 000°17'714.1
2018-Jun-11 14:00N 50°36' E 000°28'713.8
2018-Jun-11 13:30N 50°39' E 000°38'713.7
2018-Jun-11 13:00N 50°43' E 000°47'713.3
2018-Jun-11 12:30N 50°47' E 000°55'612.8
2018-Jun-11 12:00N 50°51' E 001°03'612.0
2018-Jun-11 11:30N 50°55' E 001°10'711.1
2018-Jun-11 10:53N 50°59' E 001°18'410.2
2018-Jun-11 10:30N 51°02' E 001°23'510.1
2018-Jun-11 10:00N 51°05' E 001°29'510.0
2018-Jun-11 09:30N 51°08' E 001°35'510.3
2018-Jun-11 09:00N 51°12' E 001°41'510.7
2018-Jun-11 08:30N 51°16' E 001°47'611.5
2018-Jun-11 08:00N 51°21' E 001°50'713.3
2018-Jun-11 07:30N 51°27' E 001°55'714.1
2018-Jun-11 07:01N 51°32' E 002°03'714.3
2018-Jun-11 06:31N 51°37' E 002°11'714.4
2018-Jun-11 06:00N 51°43' E 002°19'714.3
2018-Jun-11 05:30N 51°48' E 002°27'714.0
2018-Jun-11 05:00N 51°54' E 002°33'713.1
2018-Jun-11 04:30N 51°60' E 002°36'713.2
2018-Jun-11 04:00N 52°07' E 002°37'612.6
2018-Jun-11 03:30N 52°13' E 002°38'612.3
2018-Jun-11 03:00N 52°18' E 002°42'611.8
2018-Jun-11 02:30N 52°23' E 002°47'611.7
2018-Jun-11 02:00N 52°29' E 002°51'611.5
2018-Jun-11 01:30N 52°34' E 002°55'611.2
2018-Jun-11 01:00N 52°39' E 003°00'611.2
2018-Jun-11 00:27N 52°44' E 003°05'511.2
2018-Jun-11 00:00N 52°49' E 003°09'611.3
2018-Jun-10 23:30N 52°54' E 003°13'611.5
2018-Jun-10 23:00N 52°59' E 003°16'611.9
2018-Jun-10 22:29N 53°05' E 003°19'612.3
2018-Jun-10 22:00N 53°11' E 003°22'712.6
2018-Jun-10 21:28N 53°17' E 003°25'612.8
2018-Jun-10 21:00N 53°23' E 003°28'712.9
2018-Jun-10 20:29N 53°29' E 003°31'713.0
2018-Jun-10 19:55N 53°36' E 003°35'1812.2
2018-Jun-10 18:27N 53°50' E 003°55'17412.4
2018-Jun-10 04:28N 56°09' E 006°55'1812.4
2018-Jun-10 03:00N 56°24' E 007°14'612.3
2018-Jun-10 02:30N 56°29' E 007°20'2812.1
2018-Jun-10 00:09N 56°53' E 007°49'3012.2
2018-Jun-09 21:42N 57°18' E 008°20'412.5
2018-Jun-09 21:22N 57°21' E 008°24'412.5
2018-Jun-09 21:01N 57°25' E 008°29'612.2
2018-Jun-09 20:30N 57°28' E 008°39'612.3
2018-Jun-09 20:00N 57°32' E 008°48'612.3
2018-Jun-09 19:30N 57°35' E 008°58'612.5
2018-Jun-09 19:00N 57°38' E 009°08'612.3
2018-Jun-09 18:30N 57°42' E 009°18'612.2
2018-Jun-09 18:00N 57°44' E 009°28'612.2
2018-Jun-09 17:30N 57°46' E 009°39'612.0
2018-Jun-09 16:59N 57°48' E 009°50'612.2
2018-Jun-09 16:30N 57°49' E 010°01'612.3
2018-Jun-09 16:00N 57°49' E 010°12'612.1
2018-Jun-09 15:30N 57°49' E 010°24'1111.1
2018-Jun-09 14:30N 57°46' E 010°44'4 7.5
2018-Jun-09 14:00N 57°43' E 010°46'3 5.9
2018-Jun-09 13:30N 57°40' E 010°42'0 0.1
2018-Jun-09 12:58N 57°40' E 010°42'0 0.0
2018-Jun-09 12:28N 57°40' E 010°42'0 0.0
2018-Jun-09 11:58N 57°41' E 010°42'0 0.0
2018-Jun-09 11:28N 57°41' E 010°42'0 0.0
2018-Jun-09 10:58N 57°41' E 010°42'0 0.0
2018-Jun-09 10:28N 57°41' E 010°42'0 0.2
2018-Jun-09 09:58N 57°41' E 010°42'0 0.1
2018-Jun-09 09:28N 57°41' E 010°42'0 0.1
2018-Jun-09 08:58N 57°41' E 010°42'0 0.0
2018-Jun-09 08:28N 57°41' E 010°42'0 0.0
2018-Jun-09 07:55N 57°41' E 010°42'0 0.0
2018-Jun-09 07:28N 57°41' E 010°42'0 0.0
2018-Jun-09 06:55N 57°41' E 010°42'0 0.0
2018-Jun-09 06:28N 57°41' E 010°42'0 0.0
2018-Jun-09 05:58N 57°41' E 010°42'0 0.1
2018-Jun-09 05:28N 57°41' E 010°42'0 0.0
2018-Jun-09 04:52N 57°41' E 010°42'0 0.0
2018-Jun-09 04:28N 57°41' E 010°42'0 0.1
2018-Jun-09 03:52N 57°41' E 010°42'0 0.5
2018-Jun-09 03:30N 57°41' E 010°42'1 1.8
2018-Jun-09 03:00N 57°42' E 010°43'3 6.6
2018-Jun-09 02:30N 57°41' E 010°49'5 9.8
2018-Jun-09 02:00N 57°40' E 010°58'511.0
2018-Jun-09 01:31N 57°38' E 011°07'611.4
2018-Jun-09 01:01N 57°34' E 011°15'611.4
2018-Jun-09 00:31N 57°30' E 011°23'611.2
2018-Jun-09 00:00N 57°25' E 011°28'611.6
2018-Jun-08 23:31N 57°20' E 011°31'611.7
2018-Jun-08 23:00N 57°14' E 011°35'611.4
2018-Jun-08 22:30N 57°09' E 011°38'611.6
2018-Jun-08 22:01N 57°04' E 011°42'611.4
2018-Jun-08 21:30N 56°58' E 011°46'611.4
2018-Jun-08 21:00N 56°53' E 011°49'4111.1
2018-Jun-08 17:20N 56°15' E 011°21'511.0
2018-Jun-08 16:54N 56°11' E 011°17'2210.8
2018-Jun-08 14:49N 55°53' E 010°54'410.9
2018-Jun-08 14:27N 55°50' E 010°49'511.6
2018-Jun-08 14:00N 55°45' E 010°48'611.5
2018-Jun-08 13:30N 55°39' E 010°47'611.5
2018-Jun-08 12:58N 55°33' E 010°51'611.5
2018-Jun-08 12:29N 55°28' E 010°55'811.1
2018-Jun-08 11:44N 55°21' E 011°02'210.8
2018-Jun-08 11:30N 55°18' E 011°03'510.9
2018-Jun-08 11:00N 55°13' E 011°06'510.6
2018-Jun-08 10:30N 55°09' E 010°60'510.7
2018-Jun-08 10:01N 55°04' E 010°60'510.7
2018-Jun-08 09:30N 54°59' E 010°58'510.7
2018-Jun-08 09:00N 54°55' E 010°52'510.8
2018-Jun-08 08:30N 54°49' E 010°50'510.9
2018-Jun-08 08:00N 54°44' E 010°47'5 9.4
2018-Jun-08 07:30N 54°40' E 010°50'611.8
2018-Jun-08 07:00N 54°37' E 010°58'611.1
2018-Jun-08 06:30N 54°36' E 011°08'612.2
2018-Jun-08 06:00N 54°34' E 011°17'612.8
2018-Jun-08 05:30N 54°31' E 011°27'612.5
2018-Jun-08 05:00N 54°28' E 011°37'511.0
2018-Jun-08 04:30N 54°26' E 011°45'612.0
2018-Jun-08 04:00N 54°22' E 011°53'612.1
2018-Jun-08 03:30N 54°18' E 012°01'611.0
2018-Jun-08 02:59N 54°13' E 012°05'3 6.7
2018-Jun-08 02:30N 54°10' E 012°07'1 1.0
2018-Jun-08 01:53N 54°09' E 012°07'0 0.0
2018-Jun-08 01:08N 54°09' E 012°07'0 0.0
2018-Jun-08 00:59N 54°09' E 012°07'0 0.0
2018-Jun-08 00:26N 54°09' E 012°07'0 0.0
2018-Jun-07 23:56N 54°09' E 012°07'0 0.0
2018-Jun-07 23:29N 54°09' E 012°07'0 0.0
2018-Jun-07 22:56N 54°09' E 012°07'0 0.0
2018-Jun-07 22:29N 54°09' E 012°07'0 0.0
2018-Jun-07 21:56N 54°09' E 012°07'0 0.0
2018-Jun-07 21:29N 54°09' E 012°07'0 0.0
2018-Jun-07 20:50N 54°09' E 012°07'0 0.0
2018-Jun-07 19:08N 54°09' E 012°07'0 0.0
2018-Jun-07 18:56N 54°09' E 012°07'0 0.0
2018-Jun-07 18:23N 54°09' E 012°07'0 0.0
2018-Jun-07 17:14N 54°09' E 012°07'0 0.0
2018-Jun-07 16:59N 54°09' E 012°07'0 0.0
2018-Jun-07 16:23N 54°09' E 012°07'0 0.0
2018-Jun-07 15:44N 54°09' E 012°07'0 0.0
2018-Jun-07 15:20N 54°09' E 012°07'0 0.0
2018-Jun-07 14:59N 54°09' E 012°07'0 0.0
2018-Jun-07 14:26N 54°09' E 012°07'0 0.0
2018-Jun-07 13:56N 54°09' E 012°07'0 0.0
2018-Jun-07 13:26N 54°09' E 012°07'0 0.0
2018-Jun-07 11:44N 54°09' E 012°07'0 0.0
2018-Jun-07 11:29N 54°09' E 012°07'0 0.0
2018-Jun-07 10:59N 54°09' E 012°07'0 0.0
2018-Jun-07 10:29N 54°09' E 012°07'0 0.0
2018-Jun-07 08:59N 54°09' E 012°07'0 0.0
2018-Jun-07 08:20N 54°09' E 012°07'0 0.0
2018-Jun-07 07:59N 54°09' E 012°07'0 0.0
2018-Jun-07 07:23N 54°09' E 012°07'0 0.0
2018-Jun-07 06:53N 54°09' E 012°07'0 0.0
2018-Jun-07 03:56N 54°09' E 012°07'0 0.0
2018-Jun-07 03:26N 54°09' E 012°07'0 0.0
2018-Jun-07 02:50N 54°09' E 012°07'0 0.0
2018-Jun-07 02:29N 54°09' E 012°07'0 0.0
2018-Jun-07 01:59N 54°09' E 012°07'  

Dump ship's entire track history